sensor_id;sensor_type;location;lat;lon;timestamp;P1;durP1;ratioP1;P2;durP2;ratioP2
24261;SDS011;12385;51.412;5.540;2022-08-19T00:00:06;16.90;;;15.20;;
24261;SDS011;12385;51.412;5.540;2022-08-19T00:02:34;20.45;;;16.02;;
24261;SDS011;12385;51.412;5.540;2022-08-19T00:05:00;17.60;;;15.80;;
24261;SDS011;12385;51.412;5.540;2022-08-19T00:07:26;19.02;;;17.00;;
24261;SDS011;12385;51.412;5.540;2022-08-19T00:09:52;19.08;;;17.25;;
24261;SDS011;12385;51.412;5.540;2022-08-19T00:12:18;19.00;;;17.02;;
24261;SDS011;12385;51.412;5.540;2022-08-19T00:14:44;17.25;;;15.52;;
24261;SDS011;12385;51.412;5.540;2022-08-19T00:17:09;15.18;;;13.68;;
24261;SDS011;12385;51.412;5.540;2022-08-19T00:19:35;14.55;;;12.13;;
24261;SDS011;12385;51.412;5.540;2022-08-19T00:22:02;12.77;;;11.57;;
24261;SDS011;12385;51.412;5.540;2022-08-19T00:24:28;13.73;;;11.65;;
24261;SDS011;12385;51.412;5.540;2022-08-19T00:26:54;14.65;;;13.35;;
24261;SDS011;12385;51.412;5.540;2022-08-19T00:29:21;15.10;;;13.57;;
24261;SDS011;12385;51.412;5.540;2022-08-19T00:31:49;16.77;;;15.00;;
24261;SDS011;12385;51.412;5.540;2022-08-19T00:34:18;18.63;;;16.73;;
24261;SDS011;12385;51.412;5.540;2022-08-19T00:36:44;16.77;;;15.18;;
24261;SDS011;12385;51.412;5.540;2022-08-19T00:39:10;16.70;;;15.10;;
24261;SDS011;12385;51.412;5.540;2022-08-19T00:41:37;20.38;;;16.75;;
24261;SDS011;12385;51.412;5.540;2022-08-19T00:46:31;16.10;;;14.60;;
24261;SDS011;12385;51.412;5.540;2022-08-19T00:51:27;19.33;;;16.10;;
24261;SDS011;12385;51.412;5.540;2022-08-19T00:53:57;17.67;;;15.88;;
24261;SDS011;12385;51.412;5.540;2022-08-19T00:56:23;15.85;;;14.25;;
24261;SDS011;12385;51.412;5.540;2022-08-19T00:58:51;16.38;;;14.63;;
24261;SDS011;12385;51.412;5.540;2022-08-19T01:01:19;15.80;;;14.18;;
24261;SDS011;12385;51.412;5.540;2022-08-19T01:03:45;17.55;;;15.80;;
24261;SDS011;12385;51.412;5.540;2022-08-19T01:06:10;18.35;;;16.55;;
24261;SDS011;12385;51.412;5.540;2022-08-19T01:08:36;18.67;;;16.70;;
24261;SDS011;12385;51.412;5.540;2022-08-19T01:11:02;19.42;;;17.45;;
24261;SDS011;12385;51.412;5.540;2022-08-19T01:13:29;19.73;;;17.77;;
24261;SDS011;12385;51.412;5.540;2022-08-19T01:16:02;19.80;;;17.80;;
24261;SDS011;12385;51.412;5.540;2022-08-19T01:18:30;21.02;;;18.83;;
24261;SDS011;12385;51.412;5.540;2022-08-19T01:20:58;25.38;;;21.65;;
24261;SDS011;12385;51.412;5.540;2022-08-19T01:23:31;25.08;;;22.13;;
24261;SDS011;12385;51.412;5.540;2022-08-19T01:26:14;23.83;;;21.38;;
24261;SDS011;12385;51.412;5.540;2022-08-19T01:28:43;26.52;;;23.42;;
24261;SDS011;12385;51.412;5.540;2022-08-19T01:31:15;27.85;;;23.75;;
24261;SDS011;12385;51.412;5.540;2022-08-19T01:33:44;26.90;;;22.95;;
24261;SDS011;12385;51.412;5.540;2022-08-19T01:36:13;27.13;;;24.15;;
24261;SDS011;12385;51.412;5.540;2022-08-19T01:38:41;27.40;;;24.45;;
24261;SDS011;12385;51.412;5.540;2022-08-19T01:41:10;26.35;;;23.13;;
24261;SDS011;12385;51.412;5.540;2022-08-19T01:43:37;31.08;;;25.38;;
24261;SDS011;12385;51.412;5.540;2022-08-19T01:46:03;29.00;;;25.17;;
24261;SDS011;12385;51.412;5.540;2022-08-19T01:48:33;32.42;;;27.15;;
24261;SDS011;12385;51.412;5.540;2022-08-19T01:51:00;35.28;;;27.52;;
24261;SDS011;12385;51.412;5.540;2022-08-19T01:53:25;29.15;;;25.33;;
24261;SDS011;12385;51.412;5.540;2022-08-19T01:55:51;34.20;;;28.45;;
24261;SDS011;12385;51.412;5.540;2022-08-19T01:58:18;32.30;;;25.80;;
24261;SDS011;12385;51.412;5.540;2022-08-19T02:00:46;34.00;;;26.45;;
24261;SDS011;12385;51.412;5.540;2022-08-19T02:03:13;29.67;;;24.25;;
24261;SDS011;12385;51.412;5.540;2022-08-19T02:05:39;33.47;;;26.60;;
24261;SDS011;12385;51.412;5.540;2022-08-19T02:08:05;28.02;;;24.95;;
24261;SDS011;12385;51.412;5.540;2022-08-19T02:10:32;31.45;;;25.08;;
24261;SDS011;12385;51.412;5.540;2022-08-19T02:12:58;33.70;;;25.42;;
24261;SDS011;12385;51.412;5.540;2022-08-19T02:15:23;27.65;;;24.52;;
24261;SDS011;12385;51.412;5.540;2022-08-19T02:17:50;30.70;;;25.33;;
24261;SDS011;12385;51.412;5.540;2022-08-19T02:20:16;34.38;;;25.80;;
24261;SDS011;12385;51.412;5.540;2022-08-19T02:22:42;30.08;;;24.33;;
24261;SDS011;12385;51.412;5.540;2022-08-19T02:25:09;25.65;;;22.88;;
24261;SDS011;12385;51.412;5.540;2022-08-19T02:27:36;25.25;;;21.55;;
24261;SDS011;12385;51.412;5.540;2022-08-19T02:30:03;24.40;;;20.38;;
24261;SDS011;12385;51.412;5.540;2022-08-19T02:32:30;29.25;;;21.95;;
24261;SDS011;12385;51.412;5.540;2022-08-19T02:34:57;24.52;;;21.83;;
24261;SDS011;12385;51.412;5.540;2022-08-19T02:37:22;26.67;;;23.58;;
24261;SDS011;12385;51.412;5.540;2022-08-19T02:40:07;24.90;;;21.52;;
24261;SDS011;12385;51.412;5.540;2022-08-19T02:42:33;25.73;;;21.17;;
24261;SDS011;12385;51.412;5.540;2022-08-19T02:44:58;23.63;;;20.25;;
24261;SDS011;12385;51.412;5.540;2022-08-19T02:47:24;23.60;;;21.10;;
24261;SDS011;12385;51.412;5.540;2022-08-19T02:49:50;24.20;;;20.65;;
24261;SDS011;12385;51.412;5.540;2022-08-19T02:52:15;26.52;;;21.90;;
24261;SDS011;12385;51.412;5.540;2022-08-19T02:54:41;24.08;;;20.65;;
24261;SDS011;12385;51.412;5.540;2022-08-19T02:57:07;28.85;;;23.50;;
24261;SDS011;12385;51.412;5.540;2022-08-19T02:59:33;27.25;;;22.63;;
24261;SDS011;12385;51.412;5.540;2022-08-19T03:01:58;33.08;;;25.90;;
24261;SDS011;12385;51.412;5.540;2022-08-19T03:04:24;37.05;;;29.75;;
24261;SDS011;12385;51.412;5.540;2022-08-19T03:06:50;42.33;;;32.10;;
24261;SDS011;12385;51.412;5.540;2022-08-19T03:09:16;35.55;;;30.52;;
24261;SDS011;12385;51.412;5.540;2022-08-19T03:11:43;38.05;;;31.00;;
24261;SDS011;12385;51.412;5.540;2022-08-19T03:14:09;41.22;;;30.95;;
24261;SDS011;12385;51.412;5.540;2022-08-19T03:16:40;38.55;;;31.13;;
24261;SDS011;12385;51.412;5.540;2022-08-19T03:19:12;38.47;;;29.92;;
24261;SDS011;12385;51.412;5.540;2022-08-19T03:21:38;29.65;;;23.13;;
24261;SDS011;12385;51.412;5.540;2022-08-19T03:24:05;23.45;;;20.30;;
24261;SDS011;12385;51.412;5.540;2022-08-19T03:26:32;24.40;;;20.80;;
24261;SDS011;12385;51.412;5.540;2022-08-19T03:29:01;25.95;;;21.58;;
24261;SDS011;12385;51.412;5.540;2022-08-19T03:31:28;31.27;;;25.02;;
24261;SDS011;12385;51.412;5.540;2022-08-19T03:33:55;30.73;;;24.55;;
24261;SDS011;12385;51.412;5.540;2022-08-19T03:36:22;34.15;;;26.95;;
24261;SDS011;12385;51.412;5.540;2022-08-19T03:38:50;31.33;;;27.02;;
24261;SDS011;12385;51.412;5.540;2022-08-19T03:43:46;35.13;;;27.10;;
24261;SDS011;12385;51.412;5.540;2022-08-19T03:46:14;32.72;;;26.40;;
24261;SDS011;12385;51.412;5.540;2022-08-19T03:48:42;36.28;;;27.63;;
24261;SDS011;12385;51.412;5.540;2022-08-19T03:51:19;31.88;;;28.35;;
24261;SDS011;12385;51.412;5.540;2022-08-19T03:53:50;41.30;;;31.98;;
24261;SDS011;12385;51.412;5.540;2022-08-19T03:56:16;38.90;;;29.38;;
24261;SDS011;12385;51.412;5.540;2022-08-19T03:58:43;36.60;;;30.05;;
24261;SDS011;12385;51.412;5.540;2022-08-19T04:01:10;38.17;;;30.67;;
24261;SDS011;12385;51.412;5.540;2022-08-19T04:03:40;39.67;;;29.98;;
24261;SDS011;12385;51.412;5.540;2022-08-19T04:06:14;42.67;;;32.15;;
24261;SDS011;12385;51.412;5.540;2022-08-19T04:08:46;40.50;;;31.20;;
24261;SDS011;12385;51.412;5.540;2022-08-19T04:11:14;42.78;;;32.03;;
24261;SDS011;12385;51.412;5.540;2022-08-19T04:13:42;40.63;;;31.23;;
24261;SDS011;12385;51.412;5.540;2022-08-19T04:16:10;39.13;;;30.52;;
24261;SDS011;12385;51.412;5.540;2022-08-19T04:18:36;39.78;;;31.08;;
24261;SDS011;12385;51.412;5.540;2022-08-19T04:21:04;40.38;;;31.10;;
24261;SDS011;12385;51.412;5.540;2022-08-19T04:23:31;46.45;;;33.90;;
24261;SDS011;12385;51.412;5.540;2022-08-19T04:25:58;42.60;;;32.10;;
24261;SDS011;12385;51.412;5.540;2022-08-19T04:28:24;50.47;;;35.97;;
24261;SDS011;12385;51.412;5.540;2022-08-19T04:30:51;50.72;;;36.58;;
24261;SDS011;12385;51.412;5.540;2022-08-19T04:33:19;42.55;;;31.60;;
24261;SDS011;12385;51.412;5.540;2022-08-19T04:35:51;38.03;;;28.33;;
24261;SDS011;12385;51.412;5.540;2022-08-19T04:38:19;40.03;;;29.33;;
24261;SDS011;12385;51.412;5.540;2022-08-19T04:40:48;42.95;;;30.73;;
24261;SDS011;12385;51.412;5.540;2022-08-19T04:43:44;40.50;;;30.15;;
24261;SDS011;12385;51.412;5.540;2022-08-19T04:46:14;45.40;;;31.95;;
24261;SDS011;12385;51.412;5.540;2022-08-19T04:48:39;37.88;;;28.50;;
24261;SDS011;12385;51.412;5.540;2022-08-19T04:51:06;35.42;;;27.55;;
24261;SDS011;12385;51.412;5.540;2022-08-19T04:53:35;37.47;;;29.35;;
24261;SDS011;12385;51.412;5.540;2022-08-19T04:56:09;37.90;;;30.00;;
24261;SDS011;12385;51.412;5.540;2022-08-19T04:58:37;44.10;;;32.45;;
24261;SDS011;12385;51.412;5.540;2022-08-19T05:01:04;50.22;;;36.35;;
24261;SDS011;12385;51.412;5.540;2022-08-19T05:03:30;56.85;;;36.47;;
24261;SDS011;12385;51.412;5.540;2022-08-19T05:05:58;58.42;;;37.28;;
24261;SDS011;12385;51.412;5.540;2022-08-19T05:08:32;48.38;;;32.80;;
24261;SDS011;12385;51.412;5.540;2022-08-19T05:10:59;49.03;;;31.83;;
24261;SDS011;12385;51.412;5.540;2022-08-19T05:13:25;42.08;;;28.48;;
24261;SDS011;12385;51.412;5.540;2022-08-19T05:15:57;37.03;;;27.75;;
24261;SDS011;12385;51.412;5.540;2022-08-19T05:18:24;37.60;;;28.67;;
24261;SDS011;12385;51.412;5.540;2022-08-19T05:21:11;33.35;;;25.38;;
24261;SDS011;12385;51.412;5.540;2022-08-19T05:23:57;36.42;;;27.42;;
24261;SDS011;12385;51.412;5.540;2022-08-19T05:26:23;41.75;;;29.55;;
24261;SDS011;12385;51.412;5.540;2022-08-19T05:28:52;47.28;;;32.17;;
24261;SDS011;12385;51.412;5.540;2022-08-19T05:31:19;57.25;;;36.65;;
24261;SDS011;12385;51.412;5.540;2022-08-19T05:33:45;74.45;;;43.92;;
24261;SDS011;12385;51.412;5.540;2022-08-19T05:36:11;74.15;;;45.05;;
24261;SDS011;12385;51.412;5.540;2022-08-19T05:38:38;93.80;;;48.78;;
24261;SDS011;12385;51.412;5.540;2022-08-19T05:41:10;88.50;;;50.08;;
24261;SDS011;12385;51.412;5.540;2022-08-19T05:43:37;115.35;;;57.30;;
24261;SDS011;12385;51.412;5.540;2022-08-19T05:46:03;111.38;;;58.22;;
24261;SDS011;12385;51.412;5.540;2022-08-19T05:48:31;111.03;;;58.53;;
24261;SDS011;12385;51.412;5.540;2022-08-19T05:50:57;119.65;;;60.47;;
24261;SDS011;12385;51.412;5.540;2022-08-19T05:53:28;129.07;;;63.20;;
24261;SDS011;12385;51.412;5.540;2022-08-19T05:55:53;120.72;;;60.50;;
24261;SDS011;12385;51.412;5.540;2022-08-19T05:58:19;123.80;;;61.58;;
24261;SDS011;12385;51.412;5.540;2022-08-19T06:00:44;109.70;;;58.58;;
24261;SDS011;12385;51.412;5.540;2022-08-19T06:03:10;111.10;;;58.55;;
24261;SDS011;12385;51.412;5.540;2022-08-19T06:05:36;111.55;;;59.08;;
24261;SDS011;12385;51.412;5.540;2022-08-19T06:08:01;111.32;;;59.08;;
24261;SDS011;12385;51.412;5.540;2022-08-19T06:10:27;115.43;;;58.63;;
24261;SDS011;12385;51.412;5.540;2022-08-19T06:12:53;112.57;;;58.72;;
24261;SDS011;12385;51.412;5.540;2022-08-19T06:15:20;112.30;;;58.10;;
24261;SDS011;12385;51.412;5.540;2022-08-19T06:17:50;114.07;;;58.08;;
24261;SDS011;12385;51.412;5.540;2022-08-19T06:20:15;113.63;;;59.30;;
24261;SDS011;12385;51.412;5.540;2022-08-19T06:22:43;113.10;;;59.13;;
24261;SDS011;12385;51.412;5.540;2022-08-19T06:25:11;108.28;;;56.00;;
24261;SDS011;12385;51.412;5.540;2022-08-19T06:27:39;107.57;;;56.85;;
24261;SDS011;12385;51.412;5.540;2022-08-19T06:30:05;108.05;;;55.17;;
24261;SDS011;12385;51.412;5.540;2022-08-19T06:32:31;109.43;;;56.78;;
24261;SDS011;12385;51.412;5.540;2022-08-19T06:34:57;106.65;;;55.42;;
24261;SDS011;12385;51.412;5.540;2022-08-19T06:37:22;104.13;;;54.42;;
24261;SDS011;12385;51.412;5.540;2022-08-19T06:39:48;101.88;;;53.83;;
24261;SDS011;12385;51.412;5.540;2022-08-19T06:42:15;101.07;;;52.53;;
24261;SDS011;12385;51.412;5.540;2022-08-19T06:44:43;94.70;;;52.53;;
24261;SDS011;12385;51.412;5.540;2022-08-19T06:49:41;94.28;;;51.58;;
24261;SDS011;12385;51.412;5.540;2022-08-19T06:52:07;90.45;;;50.95;;
24261;SDS011;12385;51.412;5.540;2022-08-19T06:54:33;91.57;;;51.28;;
24261;SDS011;12385;51.412;5.540;2022-08-19T06:56:59;91.72;;;50.03;;
24261;SDS011;12385;51.412;5.540;2022-08-19T06:59:27;83.95;;;49.03;;
24261;SDS011;12385;51.412;5.540;2022-08-19T07:01:57;88.90;;;47.13;;
24261;SDS011;12385;51.412;5.540;2022-08-19T07:04:25;85.88;;;48.67;;
24261;SDS011;12385;51.412;5.540;2022-08-19T07:06:56;86.45;;;47.33;;
24261;SDS011;12385;51.412;5.540;2022-08-19T07:09:24;82.43;;;45.30;;
24261;SDS011;12385;51.412;5.540;2022-08-19T07:11:51;77.30;;;44.38;;
24261;SDS011;12385;51.412;5.540;2022-08-19T07:14:20;77.82;;;43.60;;
24261;SDS011;12385;51.412;5.540;2022-08-19T07:16:54;75.50;;;43.88;;
24261;SDS011;12385;51.412;5.540;2022-08-19T07:19:22;73.18;;;41.88;;
24261;SDS011;12385;51.412;5.540;2022-08-19T07:24:18;69.10;;;39.55;;
24261;SDS011;12385;51.412;5.540;2022-08-19T07:26:49;68.68;;;39.13;;
24261;SDS011;12385;51.412;5.540;2022-08-19T07:29:15;67.45;;;39.92;;
24261;SDS011;12385;51.412;5.540;2022-08-19T07:31:41;64.95;;;38.63;;
24261;SDS011;12385;51.412;5.540;2022-08-19T07:34:10;66.55;;;37.33;;
24261;SDS011;12385;51.412;5.540;2022-08-19T07:36:39;62.30;;;37.10;;
24261;SDS011;12385;51.412;5.540;2022-08-19T07:39:08;66.70;;;37.58;;
24261;SDS011;12385;51.412;5.540;2022-08-19T07:41:36;64.10;;;36.35;;
24261;SDS011;12385;51.412;5.540;2022-08-19T07:44:03;58.03;;;35.63;;
24261;SDS011;12385;51.412;5.540;2022-08-19T07:46:30;59.80;;;34.78;;
24261;SDS011;12385;51.412;5.540;2022-08-19T07:48:57;56.97;;;34.85;;
24261;SDS011;12385;51.412;5.540;2022-08-19T07:51:23;63.55;;;36.85;;
24261;SDS011;12385;51.412;5.540;2022-08-19T07:53:48;55.50;;;33.05;;
24261;SDS011;12385;51.412;5.540;2022-08-19T07:56:15;62.38;;;36.42;;
24261;SDS011;12385;51.412;5.540;2022-08-19T07:58:43;52.78;;;34.17;;
24261;SDS011;12385;51.412;5.540;2022-08-19T08:01:11;50.47;;;32.65;;
24261;SDS011;12385;51.412;5.540;2022-08-19T08:03:39;50.80;;;31.30;;
24261;SDS011;12385;51.412;5.540;2022-08-19T08:06:24;49.67;;;29.52;;
24261;SDS011;12385;51.412;5.540;2022-08-19T08:09:09;47.72;;;28.10;;
24261;SDS011;12385;51.412;5.540;2022-08-19T08:11:36;45.65;;;27.92;;
24261;SDS011;12385;51.412;5.540;2022-08-19T08:14:24;43.33;;;28.25;;
24261;SDS011;12385;51.412;5.540;2022-08-19T08:16:54;42.13;;;27.13;;
24261;SDS011;12385;51.412;5.540;2022-08-19T08:19:21;50.67;;;27.85;;
24261;SDS011;12385;51.412;5.540;2022-08-19T08:21:49;42.95;;;28.45;;
24261;SDS011;12385;51.412;5.540;2022-08-19T08:24:16;36.65;;;26.75;;
24261;SDS011;12385;51.412;5.540;2022-08-19T08:26:42;38.67;;;26.48;;
24261;SDS011;12385;51.412;5.540;2022-08-19T08:29:09;38.65;;;27.08;;
24261;SDS011;12385;51.412;5.540;2022-08-19T08:31:39;39.47;;;26.83;;
24261;SDS011;12385;51.412;5.540;2022-08-19T08:34:06;37.08;;;26.00;;
24261;SDS011;12385;51.412;5.540;2022-08-19T08:36:32;38.85;;;26.73;;
24261;SDS011;12385;51.412;5.540;2022-08-19T08:39:01;38.25;;;25.88;;
24261;SDS011;12385;51.412;5.540;2022-08-19T08:44:17;39.05;;;27.90;;
24261;SDS011;12385;51.412;5.540;2022-08-19T08:46:48;41.22;;;28.48;;
24261;SDS011;12385;51.412;5.540;2022-08-19T08:51:51;35.58;;;25.70;;
24261;SDS011;12385;51.412;5.540;2022-08-19T08:54:25;33.30;;;25.42;;
24261;SDS011;12385;51.412;5.540;2022-08-19T08:56:56;35.20;;;24.73;;
24261;SDS011;12385;51.412;5.540;2022-08-19T09:01:57;32.05;;;24.33;;
24261;SDS011;12385;51.412;5.540;2022-08-19T09:04:23;32.13;;;23.60;;
24261;SDS011;12385;51.412;5.540;2022-08-19T09:06:51;29.67;;;23.25;;
24261;SDS011;12385;51.412;5.540;2022-08-19T09:09:26;30.77;;;21.73;;
24261;SDS011;12385;51.412;5.540;2022-08-19T09:12:23;27.75;;;22.25;;
24261;SDS011;12385;51.412;5.540;2022-08-19T09:15:06;26.23;;;21.40;;
24261;SDS011;12385;51.412;5.540;2022-08-19T09:17:33;25.45;;;21.45;;
24261;SDS011;12385;51.412;5.540;2022-08-19T09:20:02;27.45;;;22.73;;
24261;SDS011;12385;51.412;5.540;2022-08-19T09:22:39;27.88;;;22.35;;
24261;SDS011;12385;51.412;5.540;2022-08-19T09:25:09;28.17;;;21.52;;
24261;SDS011;12385;51.412;5.540;2022-08-19T09:27:36;27.23;;;20.00;;
24261;SDS011;12385;51.412;5.540;2022-08-19T09:30:03;24.00;;;20.52;;
24261;SDS011;12385;51.412;5.540;2022-08-19T09:32:30;27.60;;;20.67;;
24261;SDS011;12385;51.412;5.540;2022-08-19T09:34:56;24.98;;;19.00;;
24261;SDS011;12385;51.412;5.540;2022-08-19T09:37:23;20.73;;;17.92;;
24261;SDS011;12385;51.412;5.540;2022-08-19T09:39:49;23.13;;;17.23;;
24261;SDS011;12385;51.412;5.540;2022-08-19T09:42:15;21.13;;;16.63;;
24261;SDS011;12385;51.412;5.540;2022-08-19T09:44:41;22.25;;;16.10;;
24261;SDS011;12385;51.412;5.540;2022-08-19T09:47:12;21.63;;;16.10;;
24261;SDS011;12385;51.412;5.540;2022-08-19T09:49:38;20.65;;;14.23;;
24261;SDS011;12385;51.412;5.540;2022-08-19T09:52:05;19.30;;;14.10;;
24261;SDS011;12385;51.412;5.540;2022-08-19T09:54:32;19.83;;;13.38;;
24261;SDS011;12385;51.412;5.540;2022-08-19T09:56:58;19.10;;;13.00;;
24261;SDS011;12385;51.412;5.540;2022-08-19T09:59:27;20.00;;;12.27;;
24261;SDS011;12385;51.412;5.540;2022-08-19T10:01:53;20.60;;;14.88;;
24261;SDS011;12385;51.412;5.540;2022-08-19T10:04:19;25.00;;;14.50;;
24261;SDS011;12385;51.412;5.540;2022-08-19T10:06:46;24.75;;;16.63;;
24261;SDS011;12385;51.412;5.540;2022-08-19T10:09:13;22.48;;;15.15;;
24261;SDS011;12385;51.412;5.540;2022-08-19T10:11:41;24.95;;;13.95;;
24261;SDS011;12385;51.412;5.540;2022-08-19T10:14:13;23.77;;;14.00;;
24261;SDS011;12385;51.412;5.540;2022-08-19T10:16:40;29.50;;;14.50;;
24261;SDS011;12385;51.412;5.540;2022-08-19T10:19:07;21.55;;;13.90;;
24261;SDS011;12385;51.412;5.540;2022-08-19T10:21:34;22.48;;;13.45;;
24261;SDS011;12385;51.412;5.540;2022-08-19T10:24:01;24.55;;;13.60;;
24261;SDS011;12385;51.412;5.540;2022-08-19T10:26:30;20.75;;;12.38;;
24261;SDS011;12385;51.412;5.540;2022-08-19T10:28:59;23.08;;;12.05;;
24261;SDS011;12385;51.412;5.540;2022-08-19T10:31:26;20.17;;;11.30;;
24261;SDS011;12385;51.412;5.540;2022-08-19T10:33:54;19.42;;;10.98;;
24261;SDS011;12385;51.412;5.540;2022-08-19T10:36:23;21.85;;;10.50;;
24261;SDS011;12385;51.412;5.540;2022-08-19T10:38:53;21.55;;;10.23;;
24261;SDS011;12385;51.412;5.540;2022-08-19T10:41:22;21.08;;;9.90;;
24261;SDS011;12385;51.412;5.540;2022-08-19T10:43:50;18.95;;;10.48;;
24261;SDS011;12385;51.412;5.540;2022-08-19T10:46:21;20.40;;;11.55;;
24261;SDS011;12385;51.412;5.540;2022-08-19T10:48:48;20.88;;;11.00;;
24261;SDS011;12385;51.412;5.540;2022-08-19T10:51:15;22.10;;;11.20;;
24261;SDS011;12385;51.412;5.540;2022-08-19T10:53:59;18.13;;;10.60;;
24261;SDS011;12385;51.412;5.540;2022-08-19T10:56:26;17.35;;;10.05;;
24261;SDS011;12385;51.412;5.540;2022-08-19T10:59:11;19.30;;;9.68;;
24261;SDS011;12385;51.412;5.540;2022-08-19T11:01:39;20.80;;;10.68;;
24261;SDS011;12385;51.412;5.540;2022-08-19T11:04:06;27.95;;;11.35;;
24261;SDS011;12385;51.412;5.540;2022-08-19T11:06:35;18.47;;;12.40;;
24261;SDS011;12385;51.412;5.540;2022-08-19T11:09:03;23.17;;;12.48;;
24261;SDS011;12385;51.412;5.540;2022-08-19T11:11:30;28.38;;;13.77;;
24261;SDS011;12385;51.412;5.540;2022-08-19T11:13:57;21.13;;;13.32;;
24261;SDS011;12385;51.412;5.540;2022-08-19T11:16:23;19.80;;;12.57;;
24261;SDS011;12385;51.412;5.540;2022-08-19T11:18:52;20.95;;;12.13;;
24261;SDS011;12385;51.412;5.540;2022-08-19T11:21:27;25.08;;;13.82;;
24261;SDS011;12385;51.412;5.540;2022-08-19T11:23:57;28.08;;;15.52;;
24261;SDS011;12385;51.412;5.540;2022-08-19T11:26:25;21.80;;;13.90;;
24261;SDS011;12385;51.412;5.540;2022-08-19T11:28:51;23.20;;;15.10;;
24261;SDS011;12385;51.412;5.540;2022-08-19T11:31:20;26.70;;;14.52;;
24261;SDS011;12385;51.412;5.540;2022-08-19T11:33:47;23.17;;;15.18;;
24261;SDS011;12385;51.412;5.540;2022-08-19T11:36:16;23.50;;;15.00;;
24261;SDS011;12385;51.412;5.540;2022-08-19T11:38:42;24.38;;;16.70;;
24261;SDS011;12385;51.412;5.540;2022-08-19T11:41:08;22.67;;;17.02;;
24261;SDS011;12385;51.412;5.540;2022-08-19T11:43:34;25.60;;;18.88;;
24261;SDS011;12385;51.412;5.540;2022-08-19T11:46:03;23.15;;;16.77;;
24261;SDS011;12385;51.412;5.540;2022-08-19T11:48:36;22.58;;;17.00;;
24261;SDS011;12385;51.412;5.540;2022-08-19T11:51:07;22.67;;;18.17;;
24261;SDS011;12385;51.412;5.540;2022-08-19T11:53:35;27.45;;;18.90;;
24261;SDS011;12385;51.412;5.540;2022-08-19T11:56:06;25.20;;;18.33;;
24261;SDS011;12385;51.412;5.540;2022-08-19T11:58:33;26.30;;;19.08;;
24261;SDS011;12385;51.412;5.540;2022-08-19T12:00:59;25.98;;;18.85;;
24261;SDS011;12385;51.412;5.540;2022-08-19T12:03:25;24.63;;;18.13;;
24261;SDS011;12385;51.412;5.540;2022-08-19T12:05:51;24.40;;;20.25;;
24261;SDS011;12385;51.412;5.540;2022-08-19T12:08:17;24.67;;;19.30;;
24261;SDS011;12385;51.412;5.540;2022-08-19T12:10:43;27.02;;;19.35;;
24261;SDS011;12385;51.412;5.540;2022-08-19T12:13:10;27.17;;;18.42;;
24261;SDS011;12385;51.412;5.540;2022-08-19T12:15:39;22.67;;;17.73;;
24261;SDS011;12385;51.412;5.540;2022-08-19T12:18:06;23.05;;;17.70;;
24261;SDS011;12385;51.412;5.540;2022-08-19T12:20:37;23.90;;;17.42;;
24261;SDS011;12385;51.412;5.540;2022-08-19T12:23:05;24.48;;;17.33;;
24261;SDS011;12385;51.412;5.540;2022-08-19T12:25:32;20.70;;;16.10;;
24261;SDS011;12385;51.412;5.540;2022-08-19T12:27:59;21.13;;;16.45;;
24261;SDS011;12385;51.412;5.540;2022-08-19T12:30:24;27.40;;;19.45;;
24261;SDS011;12385;51.412;5.540;2022-08-19T12:32:50;24.95;;;18.67;;
24261;SDS011;12385;51.412;5.540;2022-08-19T12:35:16;25.77;;;17.88;;
24261;SDS011;12385;51.412;5.540;2022-08-19T12:37:45;23.88;;;18.77;;
24261;SDS011;12385;51.412;5.540;2022-08-19T12:40:12;25.73;;;18.65;;
24261;SDS011;12385;51.412;5.540;2022-08-19T12:42:39;27.52;;;19.08;;
24261;SDS011;12385;51.412;5.540;2022-08-19T12:45:08;23.83;;;18.55;;
24261;SDS011;12385;51.412;5.540;2022-08-19T12:47:38;23.92;;;18.23;;
24261;SDS011;12385;51.412;5.540;2022-08-19T12:50:04;27.88;;;17.77;;
24261;SDS011;12385;51.412;5.540;2022-08-19T12:52:34;25.45;;;17.45;;
24261;SDS011;12385;51.412;5.540;2022-08-19T12:55:06;20.17;;;15.82;;
24261;SDS011;12385;51.412;5.540;2022-08-19T12:57:32;21.35;;;15.07;;
24261;SDS011;12385;51.412;5.540;2022-08-19T13:00:05;20.08;;;15.05;;
24261;SDS011;12385;51.412;5.540;2022-08-19T13:05:07;19.25;;;13.05;;
24261;SDS011;12385;51.412;5.540;2022-08-19T13:07:34;22.83;;;13.88;;
24261;SDS011;12385;51.412;5.540;2022-08-19T13:10:01;19.48;;;13.80;;
24261;SDS011;12385;51.412;5.540;2022-08-19T13:12:27;16.48;;;12.35;;
24261;SDS011;12385;51.412;5.540;2022-08-19T13:14:53;15.32;;;11.60;;
24261;SDS011;12385;51.412;5.540;2022-08-19T13:17:19;12.75;;;10.35;;
24261;SDS011;12385;51.412;5.540;2022-08-19T13:19:47;13.70;;;9.55;;
24261;SDS011;12385;51.412;5.540;2022-08-19T13:22:13;12.60;;;9.85;;
24261;SDS011;12385;51.412;5.540;2022-08-19T13:24:39;16.55;;;9.00;;
24261;SDS011;12385;51.412;5.540;2022-08-19T13:27:05;9.88;;;7.70;;
24261;SDS011;12385;51.412;5.540;2022-08-19T13:29:31;10.48;;;7.55;;
24261;SDS011;12385;51.412;5.540;2022-08-19T13:32:16;10.27;;;8.40;;
24261;SDS011;12385;51.412;5.540;2022-08-19T13:35:01;11.18;;;7.85;;
24261;SDS011;12385;51.412;5.540;2022-08-19T13:37:27;8.82;;;7.10;;
24261;SDS011;12385;51.412;5.540;2022-08-19T13:40:13;10.38;;;8.55;;
24261;SDS011;12385;51.412;5.540;2022-08-19T13:42:43;11.30;;;7.68;;
24261;SDS011;12385;51.412;5.540;2022-08-19T13:45:11;9.00;;;7.20;;
24261;SDS011;12385;51.412;5.540;2022-08-19T13:47:38;10.68;;;7.63;;
24261;SDS011;12385;51.412;5.540;2022-08-19T13:50:13;9.95;;;7.70;;
24261;SDS011;12385;51.412;5.540;2022-08-19T13:52:41;12.10;;;7.72;;
24261;SDS011;12385;51.412;5.540;2022-08-19T13:55:08;10.63;;;7.88;;
24261;SDS011;12385;51.412;5.540;2022-08-19T13:57:35;10.75;;;7.40;;
24261;SDS011;12385;51.412;5.540;2022-08-19T14:00:04;7.97;;;7.00;;
24261;SDS011;12385;51.412;5.540;2022-08-19T14:02:38;8.93;;;6.38;;
24261;SDS011;12385;51.412;5.540;2022-08-19T14:05:05;11.40;;;5.80;;
24261;SDS011;12385;51.412;5.540;2022-08-19T14:09:59;8.35;;;6.55;;
24261;SDS011;12385;51.412;5.540;2022-08-19T14:12:24;9.07;;;5.68;;
24261;SDS011;12385;51.412;5.540;2022-08-19T14:14:50;8.77;;;5.28;;
24261;SDS011;12385;51.412;5.540;2022-08-19T14:17:16;8.85;;;5.00;;
24261;SDS011;12385;51.412;5.540;2022-08-19T14:19:41;7.05;;;4.72;;
24261;SDS011;12385;51.412;5.540;2022-08-19T14:22:09;6.40;;;4.63;;
24261;SDS011;12385;51.412;5.540;2022-08-19T14:24:36;6.97;;;5.03;;
24261;SDS011;12385;51.412;5.540;2022-08-19T14:27:04;5.35;;;4.55;;
24261;SDS011;12385;51.412;5.540;2022-08-19T14:29:31;7.43;;;5.45;;
24261;SDS011;12385;51.412;5.540;2022-08-19T14:31:57;8.05;;;4.95;;
24261;SDS011;12385;51.412;5.540;2022-08-19T14:34:24;7.60;;;4.65;;
24261;SDS011;12385;51.412;5.540;2022-08-19T14:36:51;10.75;;;5.07;;
24261;SDS011;12385;51.412;5.540;2022-08-19T14:39:16;9.32;;;5.60;;
24261;SDS011;12385;51.412;5.540;2022-08-19T14:41:42;7.43;;;4.68;;
24261;SDS011;12385;51.412;5.540;2022-08-19T14:44:08;7.55;;;4.65;;
24261;SDS011;12385;51.412;5.540;2022-08-19T14:46:37;10.07;;;5.70;;
24261;SDS011;12385;51.412;5.540;2022-08-19T14:49:03;9.20;;;5.25;;
24261;SDS011;12385;51.412;5.540;2022-08-19T14:51:29;7.13;;;5.53;;
24261;SDS011;12385;51.412;5.540;2022-08-19T14:53:54;10.43;;;5.40;;